Time;durP1;ratioP1;P1;durP2;ratioP2;P2;SDS_P1;SDS_P2;PMS_P1;PMS_P2;Temp;Humidity;BMP_temperature;BMP_pressure;BME280_temperature;BME280_humidity;BME280_pressure;Samples;Min_cycle;Max_cycle;Signal;HPM_P1;HPM_P2
2023/08/10 00:00:53;;;;;;;3.63;3.42;;;;;;;;;;5033811;28;20037;-57
2023/08/10 00:03:18;;;;;;;4.78;3.55;;;;;;;;;;5033358;28;20376;-57
2023/08/10 00:05:44;;;;;;;3.70;3.50;;;;;;;;;;5033981;28;20040;-61
2023/08/10 00:08:09;;;;;;;3.72;3.40;;;;;;;;;;5016171;28;20036;-62
2023/08/10 00:10:35;;;;;;;4.53;4.13;;;;;;;;;;5033341;28;20479;-62
2023/08/10 00:13:01;;;;;;;4.13;3.90;;;;;;;;;;5033434;28;20467;-62
2023/08/10 00:15:26;;;;;;;4.75;4.45;;;;;;;;;;5015972;28;20365;-62
2023/08/10 00:17:52;;;;;;;5.53;5.10;;;;;;;;;;5033703;28;20021;-57
2023/08/10 00:20:17;;;;;;;6.90;5.80;;;;;;;;;;5033599;28;20022;-56
2023/08/10 00:22:42;;;;;;;5.70;5.20;;;;;;;;;;5033694;28;20030;-57
2023/08/10 00:25:08;;;;;;;6.03;5.53;;;;;;;;;;5019145;28;20057;-57
2023/08/10 00:27:34;;;;;;;7.22;5.95;;;;;;;;;;5037379;28;20041;-57
2023/08/10 00:29:59;;;;;;;5.82;5.15;;;;;;;;;;5019896;28;20459;-56
2023/08/10 00:32:24;;;;;;;7.00;5.28;;;;;;;;;;5019747;28;20036;-57
2023/08/10 00:34:50;;;;;;;6.82;5.38;;;;;;;;;;5019455;28;20014;-57
2023/08/10 00:37:15;;;;;;;6.90;6.20;;;;;;;;;;5037049;28;20107;-57
2023/08/10 00:39:40;;;;;;;6.60;5.70;;;;;;;;;;5037018;28;20021;-57
2023/08/10 00:42:07;;;;;;;5.82;5.32;;;;;;;;;;5037211;28;20037;-57
2023/08/10 00:44:33;;;;;;;5.65;5.15;;;;;;;;;;5028595;28;20065;-62
2023/08/10 00:46:58;;;;;;;5.55;5.13;;;;;;;;;;5019203;28;20126;-62
2023/08/10 00:49:27;;;;;;;5.53;5.03;;;;;;;;;;5019466;28;20037;-61
2023/08/10 00:51:52;;;;;;;5.40;4.90;;;;;;;;;;5037244;28;20041;-61
2023/08/10 00:54:18;;;;;;;5.65;5.13;;;;;;;;;;5019200;28;20028;-62
2023/08/10 00:56:43;;;;;;;6.43;5.82;;;;;;;;;;5019584;28;20021;-62
2023/08/10 00:59:09;;;;;;;6.47;5.35;;;;;;;;;;5036982;28;20112;-62
2023/08/10 01:01:35;;;;;;;7.70;6.05;;;;;;;;;;5018764;28;20041;-62
2023/08/10 01:04:00;;;;;;;5.68;5.13;;;;;;;;;;5036847;28;20033;-62
2023/08/10 01:06:28;;;;;;;5.18;4.72;;;;;;;;;;5036654;28;20034;-61
2023/08/10 01:08:54;;;;;;;5.75;5.13;;;;;;;;;;5036647;28;20044;-55
2023/08/10 01:11:25;;;;;;;7.07;5.13;;;;;;;;;;5019224;28;20034;-56
2023/08/10 01:13:53;;;;;;;7.55;5.57;;;;;;;;;;5036696;28;20021;-55
2023/08/10 01:16:20;;;;;;;6.78;6.05;;;;;;;;;;5018417;28;20025;-57
2023/08/10 01:18:47;;;;;;;5.90;5.22;;;;;;;;;;5036405;28;20029;-57
2023/08/10 01:21:31;;;;;;;7.40;5.07;;;;;;;;;;5018314;28;20033;-56
2023/08/10 01:24:00;;;;;;;6.47;5.10;;;;;;;;;;5036456;28;20037;-56
2023/08/10 01:26:27;;;;;;;5.70;5.13;;;;;;;;;;5035996;28;20040;-56
2023/08/10 01:28:53;;;;;;;6.03;4.68;;;;;;;;;;5036280;28;20029;-56
2023/08/10 01:31:18;;;;;;;6.07;5.30;;;;;;;;;;5035882;28;20056;-56
2023/08/10 01:33:44;;;;;;;5.97;5.38;;;;;;;;;;5039136;28;20029;-56
2023/08/10 01:36:09;;;;;;;7.03;5.00;;;;;;;;;;5055474;28;20025;-57
2023/08/10 01:38:35;;;;;;;4.97;4.57;;;;;;;;;;5021197;28;20025;-57
2023/08/10 01:41:01;;;;;;;6.03;5.25;;;;;;;;;;5055593;28;20086;-58
2023/08/10 01:43:26;;;;;;;5.63;5.13;;;;;;;;;;5037595;28;20056;-57
2023/08/10 01:45:53;;;;;;;5.90;5.20;;;;;;;;;;5037604;28;20478;-57
2023/08/10 01:48:20;;;;;;;5.30;4.88;;;;;;;;;;5037851;28;20025;-57
2023/08/10 01:50:48;;;;;;;7.30;5.97;;;;;;;;;;5055740;28;20032;-57
2023/08/10 01:53:17;;;;;;;5.88;5.32;;;;;;;;;;5037660;28;20236;-57
2023/08/10 01:55:43;;;;;;;6.30;5.70;;;;;;;;;;5037501;28;20033;-57
2023/08/10 01:58:08;;;;;;;7.13;5.78;;;;;;;;;;5038210;28;20534;-57
2023/08/10 02:00:37;;;;;;;6.38;5.78;;;;;;;;;;5056104;28;20029;-57
2023/08/10 02:03:03;;;;;;;7.70;6.00;;;;;;;;;;5021160;28;20052;-57
2023/08/10 02:05:28;;;;;;;6.30;5.80;;;;;;;;;;5037577;28;20120;-56
2023/08/10 02:07:54;;;;;;;7.38;5.93;;;;;;;;;;5037704;28;20056;-56
2023/08/10 02:10:19;;;;;;;6.70;6.00;;;;;;;;;;5037969;28;20033;-56
2023/08/10 02:12:45;;;;;;;7.45;5.30;;;;;;;;;;5055638;28;20044;-56
2023/08/10 02:15:12;;;;;;;6.50;5.90;;;;;;;;;;5037196;28;20033;-56
2023/08/10 02:17:38;;;;;;;9.75;6.60;;;;;;;;;;5055441;28;20106;-56
2023/08/10 02:20:11;;;;;;;7.50;6.68;;;;;;;;;;5055010;28;20029;-56
2023/08/10 02:22:38;;;;;;;7.53;6.78;;;;;;;;;;5054827;28;20036;-56
2023/08/10 02:25:03;;;;;;;9.68;6.75;;;;;;;;;;5037355;28;20379;-56
2023/08/10 02:27:29;;;;;;;7.80;6.57;;;;;;;;;;5055326;28;20025;-61
2023/08/10 02:29:54;;;;;;;7.60;6.82;;;;;;;;;;5054890;28;20084;-62
2023/08/10 02:32:21;;;;;;;7.57;6.32;;;;;;;;;;5055028;28;20068;-62
2023/08/10 02:34:46;;;;;;;6.75;5.97;;;;;;;;;;5037216;28;20041;-56
2023/08/10 02:37:11;;;;;;;7.55;6.45;;;;;;;;;;5055088;28;20352;-62
2023/08/10 02:39:58;;;;;;;8.63;6.65;;;;;;;;;;5053675;23;20483;-56
2023/08/10 02:42:25;;;;;;;6.95;6.25;;;;;;;;;;5013024;28;20046;-56
2023/08/10 02:44:51;;;;;;;7.57;6.88;;;;;;;;;;5015067;28;20113;-56
2023/08/10 02:47:16;;;;;;;9.15;6.53;;;;;;;;;;5014425;28;20533;-57
2023/08/10 02:49:42;;;;;;;7.03;6.32;;;;;;;;;;5014752;28;20034;-57
2023/08/10 02:52:07;;;;;;;8.73;5.82;;;;;;;;;;5013812;28;20124;-57
2023/08/10 02:54:32;;;;;;;7.47;6.65;;;;;;;;;;5015256;28;20076;-57
2023/08/10 02:56:58;;;;;;;7.82;6.82;;;;;;;;;;5013697;28;20452;-57
2023/08/10 02:59:23;;;;;;;8.18;7.38;;;;;;;;;;5014773;28;20022;-57
2023/08/10 03:01:49;;;;;;;8.05;7.25;;;;;;;;;;5013215;28;20045;-57
2023/08/10 03:04:14;;;;;;;7.05;6.28;;;;;;;;;;5013226;28;20025;-57
2023/08/10 03:06:40;;;;;;;7.57;6.88;;;;;;;;;;5013879;28;20107;-58
2023/08/10 03:09:06;;;;;;;7.30;6.60;;;;;;;;;;5013250;28;20036;-56
2023/08/10 03:11:33;;;;;;;7.65;6.57;;;;;;;;;;5013325;28;20025;-55
2023/08/10 03:13:58;;;;;;;7.22;6.55;;;;;;;;;;5013454;28;20101;-55
2023/08/10 03:16:24;;;;;;;6.95;6.25;;;;;;;;;;5013346;28;20433;-55
2023/08/10 03:18:49;;;;;;;6.18;5.65;;;;;;;;;;5014795;28;20030;-56
2023/08/10 03:21:15;;;;;;;6.03;5.53;;;;;;;;;;5013481;28;20030;-55
2023/08/10 03:23:42;;;;;;;5.70;5.30;;;;;;;;;;5014319;28;20109;-56
2023/08/10 03:26:07;;;;;;;5.53;5.10;;;;;;;;;;5012847;28;20026;-56
2023/08/10 03:28:32;;;;;;;6.05;5.55;;;;;;;;;;4980632;28;20038;-56
2023/08/10 03:30:58;;;;;;;5.15;4.75;;;;;;;;;;4996684;28;20026;-56
2023/08/10 03:33:25;;;;;;;4.70;4.28;;;;;;;;;;5013292;28;20022;-57
2023/08/10 03:35:50;;;;;;;4.78;4.43;;;;;;;;;;5014289;28;20507;-57
2023/08/10 03:38:16;;;;;;;3.70;3.50;;;;;;;;;;5012699;28;20468;-57
2023/08/10 03:40:41;;;;;;;3.13;2.92;;;;;;;;;;5012465;28;20096;-57
2023/08/10 03:43:06;;;;;;;3.53;3.33;;;;;;;;;;5013893;28;20038;-57
2023/08/10 03:45:32;;;;;;;3.40;3.20;;;;;;;;;;5014638;28;20034;-57
2023/08/10 03:47:57;;;;;;;3.58;3.38;;;;;;;;;;5012593;28;20057;-57
2023/08/10 03:50:24;;;;;;;3.33;3.13;;;;;;;;;;5012557;28;20484;-57
2023/08/10 03:52:50;;;;;;;3.30;3.10;;;;;;;;;;5012737;28;20156;-57
2023/08/10 03:55:15;;;;;;;3.05;2.90;;;;;;;;;;5013263;28;20097;-57
2023/08/10 03:57:41;;;;;;;3.80;3.40;;;;;;;;;;5035155;22;20061;-57
2023/08/10 04:00:07;;;;;;;3.25;3.05;;;;;;;;;;5034885;28;20116;-57
2023/08/10 04:05:20;;;;;;;3.50;3.30;;;;;;;;;;5044151;23;20400;-62
2023/08/10 04:07:47;;;;;;;3.40;3.20;;;;;;;;;;5019646;28;20029;-61
2023/08/10 04:10:13;;;;;;;3.70;3.50;;;;;;;;;;5037439;28;20471;-61
2023/08/10 04:15:30;;;;;;;4.07;3.75;;;;;;;;;;5056625;23;20064;-61
2023/08/10 04:17:56;;;;;;;4.50;4.20;;;;;;;;;;5055931;28;20051;-61
2023/08/10 04:20:22;;;;;;;4.63;4.32;;;;;;;;;;5039413;28;20383;-61
2023/08/10 04:22:47;;;;;;;5.13;4.43;;;;;;;;;;5056989;28;20063;-61
2023/08/10 04:25:12;;;;;;;4.47;4.07;;;;;;;;;;5057575;28;20457;-60
2023/08/10 04:27:38;;;;;;;4.97;4.55;;;;;;;;;;5054751;28;20029;-61
2023/08/10 04:30:04;;;;;;;4.63;4.22;;;;;;;;;;5038582;28;20032;-61
2023/08/10 04:32:29;;;;;;;5.20;4.80;;;;;;;;;;5056562;28;20060;-61
2023/08/10 04:34:55;;;;;;;6.40;5.63;;;;;;;;;;5057198;28;20052;-61
2023/08/10 04:37:20;;;;;;;8.68;6.97;;;;;;;;;;5056653;28;20090;-61
2023/08/10 04:39:46;;;;;;;11.10;7.90;;;;;;;;;;5056949;28;20465;-61
2023/08/10 04:42:11;;;;;;;10.90;7.78;;;;;;;;;;5057648;28;20033;-61
2023/08/10 04:44:37;;;;;;;9.70;8.00;;;;;;;;;;5056384;28;20031;-61
2023/08/10 04:47:02;;;;;;;14.30;9.23;;;;;;;;;;5057331;28;20479;-61
2023/08/10 04:49:28;;;;;;;13.27;9.23;;;;;;;;;;5057292;28;20021;-61
2023/08/10 04:51:54;;;;;;;12.88;8.95;;;;;;;;;;5056876;28;20123;-61
2023/08/10 04:54:20;;;;;;;12.75;9.18;;;;;;;;;;5056509;28;20025;-61
2023/08/10 04:56:46;;;;;;;15.32;9.43;;;;;;;;;;5056766;28;20039;-61
2023/08/10 04:59:11;;;;;;;14.18;9.85;;;;;;;;;;5040771;28;20025;-61
2023/08/10 05:01:38;;;;;;;17.58;11.15;;;;;;;;;;5036664;28;20021;-61
2023/08/10 05:04:03;;;;;;;17.90;11.07;;;;;;;;;;5051564;28;20043;-61
2023/08/10 05:06:29;;;;;;;18.67;11.70;;;;;;;;;;5056261;28;20409;-61
2023/08/10 05:08:54;;;;;;;18.92;12.13;;;;;;;;;;5056341;28;20032;-61
2023/08/10 05:11:19;;;;;;;20.05;11.23;;;;;;;;;;5054959;28;20017;-61
2023/08/10 05:13:45;;;;;;;14.77;9.93;;;;;;;;;;5056530;28;20108;-61
2023/08/10 05:16:10;;;;;;;16.63;11.15;;;;;;;;;;5056122;28;20603;-61
2023/08/10 05:18:36;;;;;;;15.68;10.02;;;;;;;;;;5055591;28;20013;-61
2023/08/10 05:21:02;;;;;;;17.73;10.38;;;;;;;;;;5055991;28;20021;-61
2023/08/10 05:23:27;;;;;;;16.27;11.30;;;;;;;;;;5037521;28;20056;-61
2023/08/10 05:25:53;;;;;;;15.25;10.07;;;;;;;;;;5055234;28;20049;-61
2023/08/10 05:28:18;;;;;;;16.55;10.90;;;;;;;;;;5052045;28;20036;-61
2023/08/10 05:30:43;;;;;;;17.65;11.05;;;;;;;;;;5037749;28;20079;-61
2023/08/10 05:33:09;;;;;;;18.75;10.70;;;;;;;;;;5055600;28;20025;-61
2023/08/10 05:35:34;;;;;;;18.42;11.32;;;;;;;;;;5056037;28;20036;-61
2023/08/10 05:37:59;;;;;;;17.17;11.02;;;;;;;;;;5036276;28;20040;-61
2023/08/10 05:40:25;;;;;;;18.15;11.55;;;;;;;;;;5053399;28;20066;-61
2023/08/10 05:42:50;;;;;;;18.58;11.43;;;;;;;;;;5053385;28;20111;-61
2023/08/10 05:45:19;;;;;;;19.75;11.63;;;;;;;;;;5053173;28;20025;-61
2023/08/10 05:47:45;;;;;;;19.55;11.30;;;;;;;;;;5053596;28;20036;-61
2023/08/10 05:50:11;;;;;;;16.85;10.82;;;;;;;;;;5053073;28;20071;-61
2023/08/10 05:52:37;;;;;;;12.23;9.35;;;;;;;;;;5053173;28;20029;-61
2023/08/10 05:55:02;;;;;;;10.80;8.38;;;;;;;;;;5053139;28;20056;-61
2023/08/10 05:57:28;;;;;;;10.13;7.75;;;;;;;;;;5053322;28;20021;-61
2023/08/10 05:59:53;;;;;;;10.10;7.85;;;;;;;;;;5054107;28;20025;-61
2023/08/10 06:02:19;;;;;;;11.00;7.60;;;;;;;;;;5037586;28;20124;-61
2023/08/10 06:04:45;;;;;;;7.47;6.35;;;;;;;;;;5055210;28;20029;-61
2023/08/10 06:07:10;;;;;;;9.45;7.70;;;;;;;;;;5054809;28;20079;-61
2023/08/10 06:09:35;;;;;;;7.70;6.85;;;;;;;;;;5054834;28;20123;-61
2023/08/10 06:12:01;;;;;;;7.90;6.80;;;;;;;;;;5054758;28;20029;-61
2023/08/10 06:14:27;;;;;;;8.93;7.13;;;;;;;;;;5054738;28;20033;-61
2023/08/10 06:16:52;;;;;;;9.23;7.03;;;;;;;;;;5054653;28;20094;-61
2023/08/10 06:19:18;;;;;;;8.88;7.03;;;;;;;;;;5054504;28;20025;-61
2023/08/10 06:21:43;;;;;;;10.18;7.25;;;;;;;;;;5053712;28;20029;-61
2023/08/10 06:24:09;;;;;;;9.40;7.15;;;;;;;;;;5054560;28;20060;-61
2023/08/10 06:26:34;;;;;;;8.38;7.30;;;;;;;;;;5054535;28;20021;-61
2023/08/10 06:29:00;;;;;;;11.05;7.25;;;;;;;;;;5054468;28;20029;-61
2023/08/10 06:31:25;;;;;;;10.68;7.72;;;;;;;;;;5054383;28;20390;-61
2023/08/10 06:33:51;;;;;;;10.88;7.47;;;;;;;;;;5036518;28;20083;-61
2023/08/10 06:36:16;;;;;;;8.88;7.07;;;;;;;;;;5054406;28;20029;-61
2023/08/10 06:38:42;;;;;;;8.77;7.25;;;;;;;;;;5054278;28;20025;-61
2023/08/10 06:41:07;;;;;;;9.90;7.55;;;;;;;;;;5054192;28;20120;-61
2023/08/10 06:43:32;;;;;;;7.55;6.15;;;;;;;;;;5054045;28;20056;-61
2023/08/10 06:45:58;;;;;;;9.52;7.55;;;;;;;;;;5035688;28;20059;-61
2023/08/10 06:48:24;;;;;;;8.63;6.93;;;;;;;;;;5042182;28;20047;-61
2023/08/10 06:50:49;;;;;;;6.85;5.90;;;;;;;;;;5045842;28;20371;-61
2023/08/10 06:53:14;;;;;;;11.85;7.80;;;;;;;;;;5034663;28;20112;-61
2023/08/10 06:55:40;;;;;;;9.85;7.30;;;;;;;;;;5034524;28;20367;-61
2023/08/10 06:58:08;;;;;;;9.70;6.97;;;;;;;;;;5034730;28;20038;-61
2023/08/10 07:00:34;;;;;;;9.27;6.40;;;;;;;;;;5034313;28;20116;-61
2023/08/10 07:02:59;;;;;;;10.05;7.50;;;;;;;;;;5033633;28;20116;-61
2023/08/10 07:05:27;;;;;;;8.82;7.13;;;;;;;;;;5033148;28;20479;-61
2023/08/10 07:07:53;;;;;;;8.57;6.38;;;;;;;;;;5032879;28;20029;-62
2023/08/10 07:10:18;;;;;;;8.90;6.82;;;;;;;;;;5033202;28;20059;-63
2023/08/10 07:12:45;;;;;;;9.68;7.05;;;;;;;;;;5051909;28;20025;-63
2023/08/10 07:15:11;;;;;;;8.00;6.13;;;;;;;;;;5053250;28;20041;-58
2023/08/10 07:17:36;;;;;;;8.45;6.45;;;;;;;;;;5053790;28;20108;-63
2023/08/10 07:20:04;;;;;;;11.30;6.78;;;;;;;;;;5054148;28;20029;-63
2023/08/10 07:22:30;;;;;;;8.23;5.70;;;;;;;;;;5036389;28;20029;-62
2023/08/10 07:25:05;;;;;;;9.32;6.00;;;;;;;;;;5054189;28;20115;-62
2023/08/10 07:27:34;;;;;;;7.60;6.45;;;;;;;;;;5053997;28;20040;-62
2023/08/10 07:30:00;;;;;;;8.00;6.53;;;;;;;;;;5053992;28;20036;-62
2023/08/10 07:32:27;;;;;;;10.73;7.00;;;;;;;;;;5053247;28;20028;-63
2023/08/10 07:34:52;;;;;;;10.65;6.97;;;;;;;;;;5053614;28;20017;-62
2023/08/10 07:37:17;;;;;;;10.82;7.70;;;;;;;;;;5053884;28;20025;-62
2023/08/10 07:39:44;;;;;;;6.57;5.55;;;;;;;;;;5053898;28;20021;-62
2023/08/10 07:42:10;;;;;;;7.90;5.43;;;;;;;;;;5053436;28;20021;-62
2023/08/10 07:44:35;;;;;;;8.15;5.45;;;;;;;;;;5053228;28;20521;-62
2023/08/10 07:47:00;;;;;;;8.02;6.18;;;;;;;;;;5035569;28;20037;-62
2023/08/10 07:49:25;;;;;;;6.10;5.35;;;;;;;;;;5053478;28;20025;-62
2023/08/10 07:51:51;;;;;;;7.50;5.40;;;;;;;;;;5053571;28;20083;-62
2023/08/10 07:54:16;;;;;;;7.13;5.10;;;;;;;;;;5053412;28;20036;-62
2023/08/10 07:56:42;;;;;;;8.20;5.75;;;;;;;;;;5053428;28;20413;-63
2023/08/10 07:59:07;;;;;;;5.50;4.65;;;;;;;;;;5053729;28;20108;-63
2023/08/10 08:01:33;;;;;;;8.70;6.32;;;;;;;;;;5053883;28;20043;-63
2023/08/10 08:03:58;;;;;;;6.35;5.32;;;;;;;;;;5053894;28;20057;-63
2023/08/10 08:06:23;;;;;;;6.07;5.47;;;;;;;;;;5053747;28;20033;-63
2023/08/10 08:08:49;;;;;;;8.32;5.80;;;;;;;;;;5053416;28;20538;-63
2023/08/10 08:11:15;;;;;;;5.65;5.15;;;;;;;;;;5053063;28;20045;-63
2023/08/10 08:13:40;;;;;;;7.38;5.90;;;;;;;;;;5053559;28;20037;-63
2023/08/10 08:16:05;;;;;;;4.68;4.25;;;;;;;;;;5045098;28;20087;-63
2023/08/10 08:18:43;;;;;;;4.75;3.58;;;;;;;;;;5036599;28;20022;-63
2023/08/10 08:21:09;;;;;;;4.22;3.70;;;;;;;;;;5033534;28;20056;-63
2023/08/10 08:23:34;;;;;;;4.45;4.05;;;;;;;;;;5033758;28;20017;-63
2023/08/10 08:25:59;;;;;;;6.95;5.80;;;;;;;;;;5033255;28;20037;-63
2023/08/10 08:28:25;;;;;;;3.72;3.13;;;;;;;;;;5033445;28;20014;-63
2023/08/10 08:30:50;;;;;;;4.57;4.15;;;;;;;;;;5033275;28;20514;-63
2023/08/10 08:33:16;;;;;;;5.13;4.68;;;;;;;;;;5015452;28;20033;-58
2023/08/10 08:35:45;;;;;;;3.85;3.53;;;;;;;;;;5035650;28;20075;-63
2023/08/10 08:38:11;;;;;;;5.30;4.45;;;;;;;;;;5034822;28;20029;-57
2023/08/10 08:40:36;;;;;;;6.05;5.18;;;;;;;;;;5052729;28;20036;-58
2023/08/10 08:43:03;;;;;;;5.65;5.15;;;;;;;;;;5052958;28;20029;-63
2023/08/10 08:45:28;;;;;;;6.43;4.95;;;;;;;;;;5054473;28;20425;-63
2023/08/10 08:47:54;;;;;;;4.95;3.75;;;;;;;;;;5056610;28;20033;-63
2023/08/10 08:50:19;;;;;;;4.38;3.95;;;;;;;;;;5057097;28;20033;-63
2023/08/10 08:52:45;;;;;;;4.40;3.97;;;;;;;;;;5056554;28;20071;-63
2023/08/10 08:55:13;;;;;;;4.13;3.78;;;;;;;;;;5038762;28;20029;-63
2023/08/10 08:57:39;;;;;;;19.20;4.18;;;;;;;;;;5056644;28;20029;-63
2023/08/10 09:00:06;;;;;;;3.85;3.20;;;;;;;;;;5056369;28;20016;-63
2023/08/10 09:02:32;;;;;;;3.63;2.90;;;;;;;;;;5056249;28;20041;-63
2023/08/10 09:04:59;;;;;;;3.97;2.45;;;;;;;;;;5055455;28;20029;-62
2023/08/10 09:07:28;;;;;;;3.22;2.85;;;;;;;;;;5056724;28;20044;-63
2023/08/10 09:09:53;;;;;;;4.72;2.72;;;;;;;;;;5056780;28;20021;-63
2023/08/10 09:12:31;;;;;;;2.70;2.50;;;;;;;;;;5055748;28;20058;-63
2023/08/10 09:15:02;;;;;;;2.85;2.65;;;;;;;;;;5055959;28;20033;-63
2023/08/10 09:17:28;;;;;;;3.60;1.65;;;;;;;;;;5055876;28;20040;-63
2023/08/10 09:19:54;;;;;;;2.85;2.30;;;;;;;;;;5055945;28;20375;-63
2023/08/10 09:22:32;;;;;;;4.10;2.30;;;;;;;;;;5055898;28;20037;-63
2023/08/10 09:24:57;;;;;;;3.20;2.10;;;;;;;;;;5055850;28;20068;-63
2023/08/10 09:27:26;;;;;;;2.20;2.10;;;;;;;;;;5055688;28;20064;-63
2023/08/10 09:30:01;;;;;;;1.90;1.80;;;;;;;;;;5055564;28;20033;-63
2023/08/10 09:32:27;;;;;;;4.50;2.03;;;;;;;;;;5055512;28;20029;-63
2023/08/10 09:34:53;;;;;;;1.98;1.80;;;;;;;;;;5055544;28;20074;-62
2023/08/10 09:37:22;;;;;;;2.50;1.50;;;;;;;;;;5053989;28;20029;-63
2023/08/10 09:39:52;;;;;;;1.60;1.50;;;;;;;;;;5056089;28;20115;-63
2023/08/10 09:42:17;;;;;;;1.60;1.50;;;;;;;;;;5055344;28;20099;-63
2023/08/10 09:44:46;;;;;;;1.40;1.30;;;;;;;;;;5053090;28;20069;-63
2023/08/10 09:47:12;;;;;;;2.42;1.83;;;;;;;;;;5040494;28;20029;-63
2023/08/10 09:49:56;;;;;;;2.60;1.60;;;;;;;;;;5034406;28;20506;-63
2023/08/10 09:52:22;;;;;;;1.58;1.48;;;;;;;;;;5041168;28;20069;-63
2023/08/10 09:54:48;;;;;;;1.67;1.58;;;;;;;;;;5035978;28;20061;-63
2023/08/10 09:57:15;;;;;;;1.52;1.42;;;;;;;;;;5035733;28;20022;-63
2023/08/10 09:59:40;;;;;;;2.17;1.70;;;;;;;;;;5035578;28;20051;-63
2023/08/10 10:02:08;;;;;;;2.40;2.15;;;;;;;;;;5035256;28;20029;-63
2023/08/10 10:04:34;;;;;;;2.33;2.13;;;;;;;;;;5034168;28;20353;-63
2023/08/10 10:07:00;;;;;;;2.85;2.10;;;;;;;;;;5035128;28;20043;-63
2023/08/10 10:09:26;;;;;;;3.20;2.03;;;;;;;;;;5018028;28;20367;-63
2023/08/10 10:11:53;;;;;;;2.38;2.17;;;;;;;;;;5035276;28;20033;-63
2023/08/10 10:14:19;;;;;;;4.85;2.08;;;;;;;;;;5035077;28;20109;-63
2023/08/10 10:16:44;;;;;;;2.08;1.52;;;;;;;;;;5035208;28;20057;-63
2023/08/10 10:19:10;;;;;;;1.60;1.50;;;;;;;;;;5035176;28;20033;-63
2023/08/10 10:21:35;;;;;;;1.52;1.42;;;;;;;;;;5035232;28;20094;-63
2023/08/10 10:24:01;;;;;;;1.77;1.67;;;;;;;;;;5035200;28;20525;-63
2023/08/10 10:26:26;;;;;;;3.05;1.63;;;;;;;;;;5017350;28;20042;-63
2023/08/10 10:29:11;;;;;;;1.45;1.35;;;;;;;;;;5034009;28;20029;-63
2023/08/10 10:31:37;;;;;;;1.90;1.48;;;;;;;;;;5034881;28;20049;-63
2023/08/10 10:34:03;;;;;;;1.80;1.70;;;;;;;;;;5035135;28;20021;-63
2023/08/10 10:36:31;;;;;;;1.50;1.40;;;;;;;;;;5034827;28;20029;-63
2023/08/10 10:39:03;;;;;;;2.40;1.40;;;;;;;;;;5017138;28;20224;-63
2023/08/10 10:41:28;;;;;;;2.97;1.45;;;;;;;;;;5034709;28;20390;-63
2023/08/10 10:43:54;;;;;;;1.55;1.45;;;;;;;;;;5032357;28;20025;-63
2023/08/10 10:46:31;;;;;;;2.75;1.60;;;;;;;;;;5016931;28;20037;-63
2023/08/10 10:48:57;;;;;;;2.33;1.60;;;;;;;;;;5034621;28;20109;-63
2023/08/10 10:51:22;;;;;;;1.40;1.30;;;;;;;;;;5034609;28;20414;-63
2023/08/10 10:53:50;;;;;;;1.42;1.20;;;;;;;;;;5034658;28;20349;-63
2023/08/10 10:56:16;;;;;;;2.28;1.20;;;;;;;;;;5034233;28;20109;-63
2023/08/10 10:58:42;;;;;;;1.20;1.10;;;;;;;;;;5032737;28;20502;-63
2023/08/10 11:01:08;;;;;;;16.83;2.05;;;;;;;;;;5036171;28;20067;-63
2023/08/10 11:03:33;;;;;;;1.90;1.40;;;;;;;;;;5035524;28;20056;-63
2023/08/10 11:05:59;;;;;;;2.15;1.40;;;;;;;;;;5037470;28;20364;-63
2023/08/10 11:08:24;;;;;;;1.27;1.15;;;;;;;;;;5033875;28;20026;-63
2023/08/10 11:10:51;;;;;;;1.60;1.25;;;;;;;;;;5034095;28;20021;-63
2023/08/10 11:13:18;;;;;;;1.33;1.27;;;;;;;;;;5033704;28;20039;-63
2023/08/10 11:15:47;;;;;;;2.38;1.30;;;;;;;;;;5034283;28;20041;-63
2023/08/10 11:18:14;;;;;;;1.30;1.20;;;;;;;;;;5033007;28;20029;-63
2023/08/10 11:20:46;;;;;;;2.47;1.30;;;;;;;;;;5032579;28;20391;-63
2023/08/10 11:23:15;;;;;;;1.50;1.40;;;;;;;;;;5034265;28;20443;-63
2023/08/10 11:25:49;;;;;;;1.52;1.42;;;;;;;;;;5034100;28;20088;-63
2023/08/10 11:28:16;;;;;;;3.47;1.30;;;;;;;;;;5033829;28;20041;-63
2023/08/10 11:30:43;;;;;;;2.88;1.33;;;;;;;;;;5033857;28;20037;-63
2023/08/10 11:33:08;;;;;;;1.63;1.52;;;;;;;;;;5016303;28;20037;-63
2023/08/10 11:35:34;;;;;;;1.65;1.35;;;;;;;;;;5033684;28;20112;-63
2023/08/10 11:37:59;;;;;;;1.30;1.20;;;;;;;;;;5033797;28;20071;-63
2023/08/10 11:40:25;;;;;;;1.63;1.17;;;;;;;;;;5033432;28;20463;-63
2023/08/10 11:43:02;;;;;;;2.92;1.60;;;;;;;;;;5035320;28;20033;-63
2023/08/10 11:45:28;;;;;;;1.52;1.40;;;;;;;;;;5042382;28;20033;-63
2023/08/10 11:47:57;;;;;;;1.20;1.20;;;;;;;;;;5033930;28;20498;-63
2023/08/10 11:50:23;;;;;;;2.03;1.10;;;;;;;;;;5033739;28;20359;-63
2023/08/10 11:52:49;;;;;;;1.85;1.30;;;;;;;;;;5033877;28;20041;-63
2023/08/10 11:55:16;;;;;;;1.17;1.10;;;;;;;;;;5033239;28;20033;-63
2023/08/10 11:57:52;;;;;;;1.90;1.80;;;;;;;;;;5033670;28;20026;-58
2023/08/10 12:00:30;;;;;;;5.03;2.35;;;;;;;;;;5033281;28;20033;-58
2023/08/10 12:03:00;;;;;;;2.95;1.33;;;;;;;;;;5032511;28;20144;-64
2023/08/10 12:05:25;;;;;;;;;;;;;;;;;;5033896;28;20474;-63
2023/08/10 12:07:51;;;;;;;1.53;1.27;;;;;;;;;;5015599;28;19909;-63
2023/08/10 12:10:16;;;;;;;1.63;1.33;;;;;;;;;;5033289;28;20264;-63
2023/08/10 12:12:45;;;;;;;2.05;1.30;;;;;;;;;;5033347;28;20080;-63
2023/08/10 12:15:15;;;;;;;1.50;1.40;;;;;;;;;;5033424;28;20468;-63
2023/08/10 12:17:40;;;;;;;2.92;1.45;;;;;;;;;;5033895;28;20363;-63
2023/08/10 12:20:06;;;;;;;1.98;1.33;;;;;;;;;;5034586;28;20026;-63
2023/08/10 12:22:38;;;;;;;1.17;1.15;;;;;;;;;;5037283;28;20348;-63
2023/08/10 12:25:04;;;;;;;1.40;1.30;;;;;;;;;;5037277;28;20056;-64
2023/08/10 12:27:29;;;;;;;1.95;1.23;;;;;;;;;;5037009;28;20463;-59
2023/08/10 12:29:54;;;;;;;1.50;1.40;;;;;;;;;;5037015;28;20029;-58
2023/08/10 12:32:20;;;;;;;4.05;1.60;;;;;;;;;;5036439;28;20495;-64
2023/08/10 12:34:45;;;;;;;5.05;2.28;;;;;;;;;;5037168;28;20033;-64
2023/08/10 12:37:11;;;;;;;4.43;2.10;;;;;;;;;;5036747;28;20018;-63
2023/08/10 12:39:36;;;;;;;1.40;1.30;;;;;;;;;;5036855;28;20357;-63
2023/08/10 12:42:02;;;;;;;1.50;1.40;;;;;;;;;;5036941;28;20032;-63
2023/08/10 12:44:28;;;;;;;1.63;1.40;;;;;;;;;;5019306;28;20120;-63
2023/08/10 12:46:56;;;;;;;1.55;1.30;;;;;;;;;;5036931;28;20435;-64
2023/08/10 12:49:22;;;;;;;2.80;1.60;;;;;;;;;;5036711;28;20087;-64
2023/08/10 12:51:47;;;;;;;3.47;1.40;;;;;;;;;;5037019;28;20033;-64
2023/08/10 12:54:12;;;;;;;1.92;1.30;;;;;;;;;;5036696;28;20448;-64
2023/08/10 12:56:38;;;;;;;1.08;1.08;;;;;;;;;;5036854;28;20017;-64
2023/08/10 12:59:03;;;;;;;2.83;1.20;;;;;;;;;;5036313;28;20033;-64
2023/08/10 13:01:28;;;;;;;1.55;1.38;;;;;;;;;;5036768;28;20036;-64
2023/08/10 13:03:56;;;;;;;1.35;1.25;;;;;;;;;;5036543;28;20060;-64
2023/08/10 13:06:22;;;;;;;1.95;1.45;;;;;;;;;;5036704;28;20040;-63
2023/08/10 13:08:48;;;;;;;1.50;1.40;;;;;;;;;;5036392;28;20045;-63
2023/08/10 13:11:14;;;;;;;2.10;1.77;;;;;;;;;;5036383;28;20025;-64
2023/08/10 13:13:39;;;;;;;1.77;1.45;;;;;;;;;;5036081;28;20038;-64
2023/08/10 13:16:05;;;;;;;2.40;1.20;;;;;;;;;;5035218;28;20106;-64
2023/08/10 13:18:30;;;;;;;1.70;1.48;;;;;;;;;;5036114;28;20030;-63
2023/08/10 13:20:55;;;;;;;1.88;1.50;;;;;;;;;;5036531;28;20035;-63
2023/08/10 13:23:21;;;;;;;1.70;1.60;;;;;;;;;;5036233;28;20040;-63
2023/08/10 13:25:46;;;;;;;2.38;1.50;;;;;;;;;;5036161;28;20033;-63
2023/08/10 13:28:11;;;;;;;1.80;1.70;;;;;;;;;;5035147;28;20039;-63
2023/08/10 13:30:37;;;;;;;1.60;1.50;;;;;;;;;;5035924;28;20040;-63
2023/08/10 13:33:02;;;;;;;3.42;1.40;;;;;;;;;;5034363;28;20452;-63
2023/08/10 13:35:27;;;;;;;1.63;1.52;;;;;;;;;;5036349;28;20072;-63
2023/08/10 13:37:53;;;;;;;2.35;1.58;;;;;;;;;;5035974;28;20053;-63
2023/08/10 13:40:18;;;;;;;342.50;18.88;;;;;;;;;;5036156;28;20045;-63
2023/08/10 13:42:43;;;;;;;3.25;1.77;;;;;;;;;;5017789;28;20040;-63
2023/08/10 13:45:09;;;;;;;2.08;1.50;;;;;;;;;;5036144;28;20451;-63
2023/08/10 13:47:34;;;;;;;2.03;1.55;;;;;;;;;;5034437;28;20033;-63
2023/08/10 13:49:59;;;;;;;1.40;1.30;;;;;;;;;;5035830;28;20491;-63
2023/08/10 13:52:25;;;;;;;1.48;1.38;;;;;;;;;;5043420;28;20021;-63
2023/08/10 13:54:50;;;;;;;1.48;1.38;;;;;;;;;;5037842;28;20024;-63
2023/08/10 13:57:17;;;;;;;1.30;1.20;;;;;;;;;;5055500;28;20455;-64
2023/08/10 13:59:44;;;;;;;1.48;1.38;;;;;;;;;;5055464;28;20044;-64
2023/08/10 14:02:09;;;;;;;1.90;1.80;;;;;;;;;;5055220;28;20051;-63
2023/08/10 14:04:35;;;;;;;1.73;1.40;;;;;;;;;;5055432;28;20467;-64
2023/08/10 14:07:00;;;;;;;1.77;1.67;;;;;;;;;;5037179;28;20040;-63
2023/08/10 14:09:26;;;;;;;1.50;1.40;;;;;;;;;;5037772;28;20028;-64
2023/08/10 14:11:51;;;;;;;2.22;1.73;;;;;;;;;;5037320;28;20506;-59
2023/08/10 14:14:17;;;;;;;2.10;1.70;;;;;;;;;;5053212;28;20026;-60
2023/08/10 14:16:43;;;;;;;1.58;1.48;;;;;;;;;;5048710;28;20029;-59
2023/08/10 14:19:09;;;;;;;2.35;1.42;;;;;;;;;;5053610;28;20120;-59
2023/08/10 14:21:34;;;;;;;1.27;1.23;;;;;;;;;;5036866;28;20429;-59
2023/08/10 14:24:01;;;;;;;2.22;1.48;;;;;;;;;;5054795;28;20550;-59
2023/08/10 14:26:27;;;;;;;1.40;1.30;;;;;;;;;;5054873;28;20028;-59
2023/08/10 14:28:52;;;;;;;3.70;1.92;;;;;;;;;;5055104;28;20512;-59
2023/08/10 14:31:17;;;;;;;1.60;1.45;;;;;;;;;;5036863;28;20040;-59
2023/08/10 14:33:43;;;;;;;3.22;1.48;;;;;;;;;;5054756;28;20024;-59
2023/08/10 14:36:09;;;;;;;6.40;1.58;;;;;;;;;;5054993;28;20025;-59
2023/08/10 14:38:34;;;;;;;1.80;1.50;;;;;;;;;;5054939;28;20371;-59
2023/08/10 14:41:00;;;;;;;1.25;1.25;;;;;;;;;;5036830;28;20032;-59